Time;durP1;ratioP1;P1;durP2;ratioP2;P2;SDS_P1;SDS_P2;PMS_P1;PMS_P2;Temp;Humidity;BMP_temperature;BMP_pressure;BME280_temperature;BME280_humidity;BME280_pressure;Samples;Min_cycle;Max_cycle;Signal;HPM_P1;HPM_P2
2022/06/14 00:00:54;;;;;;;4.10;3.70;;;;;;;-143.85;100.00;70650.75;5059437;28;20086;-94
2022/06/14 00:03:31;;;;;;;4.47;2.85;;;;;;;-143.85;100.00;70650.75;5077087;28;20028;-94
2022/06/14 00:06:00;;;;;;;3.30;2.45;;;;;;;-143.85;100.00;70650.75;5060046;28;20473;-92
2022/06/14 00:08:27;;;;;;;5.75;3.17;;;;;;;-143.85;100.00;70650.75;5059051;28;20024;-93
2022/06/14 00:10:55;;;;;;;3.08;2.35;;;;;;;-143.85;100.00;70650.75;5058930;28;20024;-93
2022/06/14 00:13:21;;;;;;;4.75;2.85;;;;;;;-143.85;100.00;70650.75;5059559;28;20029;-93
2022/06/14 00:15:46;;;;;;;6.25;4.25;;;;;;;-143.85;100.00;70650.75;5058760;28;20028;-94
2022/06/14 00:18:14;;;;;;;5.75;3.50;;;;;;;-143.85;100.00;70650.75;5059149;28;20031;-93
2022/06/14 00:20:40;;;;;;;6.43;4.03;;;;;;;-143.85;100.00;70650.75;5058665;28;20028;-94
2022/06/14 00:23:06;;;;;;;7.72;4.50;;;;;;;-143.85;100.00;70650.75;5058720;28;20173;-94
2022/06/14 00:25:36;;;;;;;9.32;3.80;;;;;;;-143.85;100.00;70650.75;5058654;28;20597;-93
2022/06/14 00:28:03;;;;;;;4.65;3.28;;;;;;;-143.85;100.00;70650.75;5058704;28;20536;-92
2022/06/14 00:30:30;;;;;;;6.88;4.07;;;;;;;-143.85;100.00;70650.75;5076529;28;20049;-93
2022/06/14 00:32:55;;;;;;;6.40;3.88;;;;;;;-143.85;100.00;70650.75;5058570;28;20021;-93
2022/06/14 00:35:21;;;;;;;4.85;2.70;;;;;;;-143.85;100.00;70650.75;5058513;28;20028;-94
2022/06/14 00:37:47;;;;;;;7.30;3.17;;;;;;;-143.85;100.00;70650.75;5059169;28;20119;-94
2022/06/14 00:40:16;;;;;;;10.93;2.58;;;;;;;-143.85;100.00;70650.75;5063490;28;20037;-94
2022/06/14 00:42:42;;;;;;;4.47;2.75;;;;;;;-143.85;100.00;70650.75;5068523;28;20218;-94
2022/06/14 00:45:27;;;;;;;5.15;3.72;;;;;;;-143.85;100.00;70650.75;5078911;28;20086;-94
2022/06/14 00:48:04;;;;;;;4.95;3.03;;;;;;;-143.85;100.00;70650.75;5058417;28;20029;-93
2022/06/14 00:51:02;;;;;;;4.18;2.80;;;;;;;-143.85;100.00;70650.75;5058080;28;20047;-94
2022/06/14 00:53:35;;;;;;;;;;;;;;;-143.85;100.00;70650.75;5076534;28;20107;-93
2022/06/14 00:56:22;;;;;;;5.70;3.13;;;;;;;-143.85;100.00;70650.75;5057514;28;19920;-93
2022/06/14 00:58:53;;;;;;;4.18;2.78;;;;;;;-143.85;100.00;70650.75;5060166;28;20041;-95
2022/06/14 01:01:25;;;;;;;5.03;3.40;;;;;;;-143.85;100.00;70650.75;5061361;28;20025;-96
2022/06/14 01:03:58;;;;;;;4.65;2.97;;;;;;;-143.85;100.00;70650.75;5059780;28;20024;-95
2022/06/14 01:06:36;;;;;;;4.13;3.20;;;;;;;-143.85;100.00;70650.75;5057932;28;20028;-95
2022/06/14 01:09:07;;;;;;;;;;;;;;;-143.85;100.00;70650.75;5058656;28;20024;-93
2022/06/14 01:12:09;;;;;;;6.45;3.75;;;;;;;-143.85;100.00;70650.75;5057640;28;19912;-92
2022/06/14 01:14:53;;;;;;;7.28;3.17;;;;;;;-143.85;100.00;70650.75;5054509;28;20055;-92
2022/06/14 01:17:20;;;;;;;6.40;2.58;;;;;;;-143.85;100.00;70650.75;5057890;28;20036;-92
2022/06/14 01:19:46;;;;;;;4.80;3.08;;;;;;;-143.85;100.00;70650.75;5075308;28;20051;-93
2022/06/14 01:22:11;;;;;;;3.97;2.88;;;;;;;-143.85;100.00;70650.75;5057575;28;20468;-91
2022/06/14 01:24:40;;;;;;;3.50;2.55;;;;;;;-143.85;100.00;70650.75;5057519;28;20473;-91
2022/06/14 01:27:10;;;;;;;6.18;2.40;;;;;;;-143.85;100.00;70650.75;5057378;28;20035;-92
2022/06/14 01:29:38;;;;;;;3.97;2.92;;;;;;;-143.85;100.00;70650.75;5057182;28;20024;-93
2022/06/14 01:32:06;;;;;;;;;;;;;;;-143.85;100.00;70650.75;5075336;28;20131;-93
2022/06/14 01:34:36;;;;;;;3.47;3.15;;;;;;;-143.85;100.00;70650.75;5057241;28;19963;-95
2022/06/14 01:37:01;;;;;;;6.07;3.33;;;;;;;-143.85;100.00;70650.75;5057756;28;20029;-94
2022/06/14 01:39:28;;;;;;;4.72;2.92;;;;;;;-143.85;100.00;70650.75;5057317;28;20121;-94
2022/06/14 01:42:16;;;;;;;5.60;2.90;;;;;;;-143.85;100.00;70650.75;5057371;28;20039;-95
2022/06/14 01:45:04;;;;;;;4.50;3.28;;;;;;;-143.85;100.00;70650.75;5057612;28;20033;-94
2022/06/14 01:47:54;;;;;;;4.05;1.90;;;;;;;-143.85;100.00;70650.75;5057641;28;20021;-92
2022/06/14 01:53:19;;;;;;;3.40;2.53;;;;;;;-143.85;100.00;70650.75;5074642;28;20097;-93
2022/06/14 01:55:58;;;;;;;5.50;2.70;;;;;;;-143.85;100.00;70650.75;5056834;28;20029;-92
2022/06/14 01:58:38;;;;;;;4.95;2.80;;;;;;;-143.85;100.00;70650.75;5056905;28;20024;-92
2022/06/14 02:01:27;;;;;;;4.05;2.67;;;;;;;-143.85;100.00;70650.75;5056661;28;20062;-93
2022/06/14 02:04:37;;;;;;;4.15;3.42;;;;;;;-143.85;100.00;70650.75;5056655;28;20024;-92
2022/06/14 02:07:24;;;;;;;4.47;2.90;;;;;;;-143.85;100.00;70650.75;5069376;28;20127;-93
2022/06/14 02:10:04;;;;;;;8.97;3.30;;;;;;;-143.85;100.00;70650.75;5056481;28;20111;-92
2022/06/14 02:13:01;;;;;;;6.35;3.13;;;;;;;-143.85;100.00;70650.75;5056543;28;20033;-93
2022/06/14 02:15:52;;;;;;;4.57;2.97;;;;;;;-143.85;100.00;70650.75;5057347;28;20407;-93
2022/06/14 02:18:30;;;;;;;4.18;3.28;;;;;;;-143.85;100.00;70650.75;5055813;28;20494;-94
2022/06/14 02:21:02;;;;;;;3.63;2.75;;;;;;;-143.85;100.00;70650.75;5056064;28;20035;-94
2022/06/14 02:23:33;;;;;;;4.00;2.60;;;;;;;-143.85;100.00;70650.75;5056979;28;20051;-94
2022/06/14 02:26:09;;;;;;;4.22;2.60;;;;;;;-143.85;100.00;70650.75;5056500;28;20400;-92
2022/06/14 02:28:41;;;;;;;6.07;2.88;;;;;;;-143.85;100.00;70650.75;5056362;28;20089;-92
2022/06/14 02:31:16;;;;;;;4.97;2.70;;;;;;;-143.85;100.00;70650.75;5074053;28;20505;-92
2022/06/14 02:34:00;;;;;;;4.97;2.47;;;;;;;-143.85;100.00;70650.75;5056653;28;20030;-92
2022/06/14 02:36:31;;;;;;;4.47;2.70;;;;;;;-143.85;100.00;70650.75;5056621;28;20028;-93
2022/06/14 02:39:06;;;;;;;3.85;2.50;;;;;;;-143.85;100.00;70650.75;5056566;28;20020;-94
2022/06/14 02:41:45;;;;;;;3.72;2.95;;;;;;;-143.85;100.00;70650.75;5056536;28;20064;-93
2022/06/14 02:44:27;;;;;;;3.90;2.80;;;;;;;-143.85;100.00;70650.75;5055878;28;20091;-93
2022/06/14 02:47:00;;;;;;;5.03;3.33;;;;;;;-143.85;100.00;70650.75;5056533;28;20197;-93
2022/06/14 02:49:48;;;;;;;3.28;2.97;;;;;;;-143.85;100.00;70650.75;5056022;28;20400;-92
2022/06/14 02:52:41;;;;;;;3.92;2.55;;;;;;;-143.85;100.00;70650.75;5073480;28;20032;-94
2022/06/14 02:55:19;;;;;;;4.78;3.03;;;;;;;-143.85;100.00;70650.75;5056221;28;20089;-92
2022/06/14 02:57:49;;;;;;;;;;;;;;;-143.85;100.00;70650.75;5056690;28;20025;-94
2022/06/14 03:00:28;;;;;;;7.47;3.15;;;;;;;-143.85;100.00;70650.75;5055734;28;19958;-92
2022/06/14 03:03:06;;;;;;;3.47;2.67;;;;;;;-143.85;100.00;70650.75;5055611;28;20017;-92
2022/06/14 03:05:49;;;;;;;5.63;3.55;;;;;;;-143.85;100.00;70650.75;5055678;28;20032;-92
2022/06/14 03:08:29;;;;;;;3.95;2.67;;;;;;;-143.85;100.00;70650.75;5073505;28;20036;-94
2022/06/14 03:10:54;;;;;;;7.57;2.95;;;;;;;-143.85;100.00;70650.75;5055428;28;20028;-92
2022/06/14 03:13:33;;;;;;;3.50;2.65;;;;;;;-143.85;100.00;70650.75;5055620;28;20115;-92
2022/06/14 03:16:10;;;;;;;3.60;2.90;;;;;;;-143.85;100.00;70650.75;5055143;28;20032;-93
2022/06/14 03:19:13;;;;;;;4.80;2.80;;;;;;;-143.85;100.00;70650.75;5054976;28;20060;-94
2022/06/14 03:21:50;;;;;;;3.83;2.88;;;;;;;-143.85;100.00;70650.75;5056258;28;20025;-92
2022/06/14 03:24:27;;;;;;;8.18;2.55;;;;;;;-143.85;100.00;70650.75;5056029;28;20025;-92
2022/06/14 03:27:11;;;;;;;3.53;2.43;;;;;;;-143.85;100.00;70650.75;5055994;28;20059;-92
2022/06/14 03:29:47;;;;;;;3.58;2.83;;;;;;;-143.85;100.00;70650.75;5055450;28;20271;-91
2022/06/14 03:32:25;;;;;;;4.93;2.28;;;;;;;-143.85;100.00;70650.75;5056087;28;20071;-93
2022/06/14 03:35:03;;;;;;;3.65;2.45;;;;;;;-143.85;100.00;70650.75;5055938;28;20484;-95
2022/06/14 03:40:13;;;;;;;3.40;2.42;;;;;;;-143.85;100.00;70650.75;5147806;22;20052;-93
2022/06/14 03:42:39;;;;;;;3.53;2.53;;;;;;;-143.85;100.00;70650.75;5086320;28;20119;-94
2022/06/14 03:45:08;;;;;;;6.45;2.63;;;;;;;-143.85;100.00;70650.75;5218821;22;20049;-96
2022/06/14 03:47:34;;;;;;;10.82;2.97;;;;;;;-143.85;100.00;70650.75;5148172;22;20056;-96
2022/06/14 03:50:08;;;;;;;4.88;2.45;;;;;;;-143.85;100.00;70650.75;5141342;22;20044;-95
2022/06/14 03:52:52;;;;;;;3.90;2.85;;;;;;;-143.85;100.00;70650.75;5120329;22;20072;-95
2022/06/14 03:55:47;;;;;;;2.85;2.30;;;;;;;-143.85;100.00;70650.75;5059445;28;20123;-94
2022/06/14 03:58:18;;;;;;;4.32;2.65;;;;;;;-143.85;100.00;70650.75;5055537;28;20504;-94
2022/06/14 04:00:56;;;;;;;3.72;2.47;;;;;;;-143.85;100.00;70650.75;5055727;28;20033;-93
2022/06/14 04:03:37;;;;;;;3.67;2.03;;;;;;;-143.85;100.00;70650.75;5056896;28;20435;-95
2022/06/14 04:06:03;;;;;;;9.32;2.47;;;;;;;-143.85;100.00;70650.75;5054321;28;20033;-94
2022/06/14 04:08:28;;;;;;;4.85;3.03;;;;;;;-143.85;100.00;70650.75;5036729;28;20025;-96
2022/06/14 04:11:23;;;;;;;3.63;2.30;;;;;;;-143.85;100.00;70650.75;5060323;28;20155;-96
2022/06/14 04:13:57;;;;;;;4.07;1.85;;;;;;;-143.85;100.00;70650.75;5076422;22;20195;-96
2022/06/14 04:16:44;;;;;;;2.55;2.10;;;;;;;-143.85;100.00;70650.75;5035009;28;20164;-94
2022/06/14 04:19:36;;;;;;;3.28;2.10;;;;;;;-143.85;100.00;70650.75;5031507;28;20033;-90
2022/06/14 04:22:20;;;;;;;3.35;1.80;;;;;;;-143.85;100.00;70650.75;5034944;28;20033;-89
2022/06/14 04:24:55;;;;;;;3.45;2.45;;;;;;;-143.85;100.00;70650.75;5052605;28;20056;-89
2022/06/14 04:27:35;;;;;;;4.00;2.40;;;;;;;-143.85;100.00;70650.75;5034339;28;20116;-90
2022/06/14 04:30:15;;;;;;;2.63;2.30;;;;;;;-143.85;100.00;70650.75;5052523;28;20063;-89
2022/06/14 04:33:08;;;;;;;2.53;2.10;;;;;;;-143.85;100.00;70650.75;5052580;28;20047;-91
2022/06/14 04:35:58;;;;;;;6.75;1.98;;;;;;;-143.85;100.00;70650.75;5034631;28;20029;-88
2022/06/14 04:38:56;;;;;;;2.45;2.03;;;;;;;-143.85;100.00;70650.75;5034586;28;20083;-88
2022/06/14 04:41:29;;;;;;;2.45;1.80;;;;;;;-143.85;100.00;70650.75;5035164;28;20041;-88
2022/06/14 04:44:07;;;;;;;2.10;1.60;;;;;;;-143.85;100.00;70650.75;5038447;28;20111;-88
2022/06/14 04:47:09;;;;;;;2.95;1.67;;;;;;;-143.85;100.00;70650.75;5038746;28;20061;-88
2022/06/14 04:49:54;;;;;;;2.58;1.85;;;;;;;-143.85;100.00;70650.75;5037947;28;20085;-87
2022/06/14 04:52:24;;;;;;;2.85;1.88;;;;;;;-143.85;100.00;70650.75;5038440;28;20122;-88
2022/06/14 04:54:52;;;;;;;4.00;1.80;;;;;;;-143.85;100.00;70650.75;5038367;28;20025;-89
2022/06/14 04:57:29;;;;;;;2.47;1.90;;;;;;;-143.85;100.00;70650.75;5037802;28;20029;-89
2022/06/14 05:00:09;;;;;;;2.75;1.90;;;;;;;-143.85;100.00;70650.75;5056347;28;20024;-88
2022/06/14 05:02:44;;;;;;;3.22;2.00;;;;;;;-143.85;100.00;70650.75;5055846;28;20033;-89
2022/06/14 05:05:16;;;;;;;3.22;1.67;;;;;;;-143.85;100.00;70650.75;5056120;28;20029;-89
2022/06/14 05:08:11;;;;;;;2.30;1.90;;;;;;;-143.85;100.00;70650.75;5037793;28;20443;-89
2022/06/14 05:11:02;;;;;;;3.70;2.15;;;;;;;-143.85;100.00;70650.75;5017160;28;20040;-89
2022/06/14 05:13:27;;;;;;;3.97;1.98;;;;;;;-143.85;100.00;70650.75;5037436;28;20053;-90
2022/06/14 05:15:57;;;;;;;4.07;1.93;;;;;;;-143.85;100.00;70650.75;5037857;28;20035;-89
2022/06/14 05:18:50;;;;;;;3.20;2.25;;;;;;;-143.85;100.00;70650.75;5037767;28;20263;-89
2022/06/14 05:21:24;;;;;;;3.13;1.83;;;;;;;-143.85;100.00;70650.75;5037724;28;20036;-89
2022/06/14 05:23:53;;;;;;;2.03;1.83;;;;;;;-143.85;100.00;70650.75;5038288;28;20032;-89
2022/06/14 05:26:36;;;;;;;1.95;1.77;;;;;;;-143.85;100.00;70650.75;5055335;28;20043;-89
2022/06/14 05:29:11;;;;;;;4.43;1.92;;;;;;;-143.85;100.00;70650.75;5055633;28;20064;-89
2022/06/14 05:32:04;;;;;;;2.25;1.70;;;;;;;-143.85;100.00;70650.75;5054983;28;20090;-90
2022/06/14 05:34:54;;;;;;;2.33;1.80;;;;;;;-143.85;100.00;70650.75;5037166;28;20031;-89
2022/06/14 05:37:25;;;;;;;1.80;1.70;;;;;;;-143.85;100.00;70650.75;5037156;28;20122;-90
2022/06/14 05:40:18;;;;;;;2.40;1.80;;;;;;;-143.85;100.00;70650.75;5037473;28;20171;-89
2022/06/14 05:42:52;;;;;;;1.90;1.65;;;;;;;-143.85;100.00;70650.75;5055212;28;20503;-89
2022/06/14 05:45:22;;;;;;;2.28;1.65;;;;;;;-143.85;100.00;70650.75;5037450;28;20063;-89
2022/06/14 05:47:50;;;;;;;3.25;2.40;;;;;;;-143.85;100.00;70650.75;5037379;28;20041;-90
2022/06/14 05:50:33;;;;;;;4.63;2.75;;;;;;;-143.85;100.00;70650.75;5036973;28;20025;-89
2022/06/14 05:53:07;;;;;;;3.53;2.60;;;;;;;-143.85;100.00;70650.75;5037542;28;20029;-89
2022/06/14 05:55:41;;;;;;;3.78;2.15;;;;;;;-143.85;100.00;70650.75;5037079;28;20488;-90
2022/06/14 05:58:10;;;;;;;1.98;1.77;;;;;;;-143.85;100.00;70650.75;5036980;28;20435;-90
2022/06/14 06:00:43;;;;;;;4.00;2.65;;;;;;;-143.85;100.00;70650.75;5036943;28;20029;-90
2022/06/14 06:03:31;;;;;;;2.88;2.10;;;;;;;-143.85;100.00;70650.75;5054573;28;20032;-89
2022/06/14 06:06:01;;;;;;;2.28;2.08;;;;;;;-143.85;100.00;70650.75;5037222;28;20373;-91
2022/06/14 06:08:36;;;;;;;2.80;2.30;;;;;;;-143.85;100.00;70650.75;5036534;28;20123;-90
2022/06/14 06:11:38;;;;;;;2.30;2.10;;;;;;;-143.85;100.00;70650.75;5036305;28;20031;-90
2022/06/14 06:14:33;;;;;;;1.70;1.38;;;;;;;-143.85;100.00;70650.75;5037208;28;20045;-90
2022/06/14 06:17:05;;;;;;;3.95;2.42;;;;;;;-143.85;100.00;70650.75;5052013;28;20056;-90
2022/06/14 06:19:48;;;;;;;5.78;2.42;;;;;;;-143.85;100.00;70650.75;5054722;28;20025;-91
2022/06/14 06:22:20;;;;;;;3.55;2.67;;;;;;;-143.85;100.00;70650.75;5036664;28;20029;-91
2022/06/14 06:24:54;;;;;;;2.33;1.98;;;;;;;-143.85;100.00;70650.75;5036746;28;20029;-90
2022/06/14 06:27:32;;;;;;;4.20;1.58;;;;;;;-143.85;100.00;70650.75;5054290;28;20036;-90
2022/06/14 06:30:13;;;;;;;3.67;2.30;;;;;;;-143.85;100.00;70650.75;5053999;28;20127;-90
2022/06/14 06:32:39;;;;;;;8.13;3.45;;;;;;;-143.85;100.00;70650.75;5036414;28;20025;-90
2022/06/14 06:35:05;;;;;;;5.22;2.85;;;;;;;-143.85;100.00;70650.75;5036111;28;20079;-88
2022/06/14 06:37:41;;;;;;;2.33;1.85;;;;;;;-143.85;100.00;70650.75;5035998;28;20033;-90
2022/06/14 06:40:21;;;;;;;2.03;1.55;;;;;;;-143.85;100.00;70650.75;5036273;28;20032;-90
2022/06/14 06:42:54;;;;;;;2.25;1.60;;;;;;;-143.85;100.00;70650.75;5035814;28;20111;-90
2022/06/14 06:45:28;;;;;;;2.10;1.65;;;;;;;-143.85;100.00;70650.75;5035985;28;20021;-90
2022/06/14 06:48:21;;;;;;;2.38;1.70;;;;;;;-143.85;100.00;70650.75;5053357;28;20100;-90
2022/06/14 06:50:51;;;;;;;2.80;1.73;;;;;;;-143.85;100.00;70650.75;5035953;28;20032;-90
2022/06/14 06:53:19;;;;;;;2.28;1.60;;;;;;;-143.85;100.00;70650.75;5035521;28;20442;-90
2022/06/14 06:56:06;;;;;;;5.57;1.75;;;;;;;-143.85;100.00;70650.75;5035675;28;20029;-90
2022/06/14 06:58:36;;;;;;;1.60;1.40;;;;;;;-143.85;100.00;70650.75;5035907;28;20040;-89
2022/06/14 07:01:13;;;;;;;2.38;1.60;;;;;;;-143.85;100.00;70650.75;5035741;28;20550;-89
2022/06/14 07:03:50;;;;;;;2.97;1.35;;;;;;;-143.85;100.00;70650.75;5035565;28;20029;-91
2022/06/14 07:06:25;;;;;;;3.47;1.45;;;;;;;-143.85;100.00;70650.75;5036157;28;20040;-90
2022/06/14 07:08:59;;;;;;;1.33;1.23;;;;;;;-143.85;100.00;70650.75;5035831;28;20047;-89
2022/06/14 07:11:39;;;;;;;1.45;1.10;;;;;;;-143.85;100.00;70650.75;5035450;28;20025;-89
2022/06/14 07:14:14;;;;;;;1.63;1.10;;;;;;;-143.85;100.00;70650.75;5035170;28;20048;-89
2022/06/14 07:16:49;;;;;;;1.08;0.98;;;;;;;-143.85;100.00;70650.75;5035782;28;20078;-89
2022/06/14 07:19:31;;;;;;;1.88;1.20;;;;;;;-143.85;100.00;70650.75;5039604;28;20037;-96
2022/06/14 07:22:20;;;;;;;2.10;1.10;;;;;;;-143.85;100.00;70650.75;5039296;28;20029;-89
2022/06/14 07:24:54;;;;;;;0.90;0.90;;;;;;;-143.85;100.00;70650.75;5054244;28;20025;-91
2022/06/14 07:27:26;;;;;;;1.98;1.38;;;;;;;-143.85;100.00;70650.75;5035857;28;20127;-90
2022/06/14 07:30:08;;;;;;;1.25;1.15;;;;;;;-143.85;100.00;70650.75;5035687;28;20032;-92
2022/06/14 07:32:51;;;;;;;4.20;1.02;;;;;;;-143.85;100.00;70650.75;5035921;28;20033;-91
2022/06/14 07:35:24;;;;;;;1.20;1.10;;;;;;;-143.85;100.00;70650.75;5035160;28;20068;-90
2022/06/14 07:38:02;;;;;;;3.05;1.42;;;;;;;-143.85;100.00;70650.75;5035996;28;20025;-92
2022/06/14 07:40:39;;;;;;;1.13;1.10;;;;;;;-143.85;100.00;70650.75;5035356;28;20029;-91
2022/06/14 07:43:11;;;;;;;1.05;0.95;;;;;;;-143.85;100.00;70650.75;5035684;28;20044;-91
2022/06/14 07:45:43;;;;;;;0.75;0.75;;;;;;;-143.85;100.00;70650.75;5035226;28;20025;-91
2022/06/14 07:48:22;;;;;;;1.10;0.90;;;;;;;-143.85;100.00;70650.75;5053136;28;20037;-92
2022/06/14 07:50:54;;;;;;;1.90;0.98;;;;;;;-143.85;100.00;70650.75;5053066;28;20489;-90
2022/06/14 07:53:41;;;;;;;1.63;0.82;;;;;;;-143.85;100.00;70650.75;5036092;28;20473;-91
2022/06/14 07:56:15;;;;;;;;;;;;;;;-143.85;100.00;70650.75;5035867;28;20025;-91
2022/06/14 07:58:51;;;;;;;2.67;1.00;;;;;;;-143.85;100.00;70650.75;5035566;28;20365;-91
2022/06/14 08:01:51;;;;;;;1.15;1.00;;;;;;;-143.85;100.00;70650.75;5035486;28;20021;-91
2022/06/14 08:04:20;;;;;;;1.40;1.20;;;;;;;-143.85;100.00;70650.75;5036026;28;20029;-94
2022/06/14 08:07:07;;;;;;;1.27;1.10;;;;;;;-143.85;100.00;70650.75;5035400;28;20064;-91
2022/06/14 08:09:43;;;;;;;2.10;1.00;;;;;;;-143.85;100.00;70650.75;5035354;28;20044;-94
2022/06/14 08:12:31;;;;;;;1.58;1.20;;;;;;;-143.85;100.00;70650.75;5053606;28;20077;-92
2022/06/14 08:15:01;;;;;;;1.30;1.20;;;;;;;-143.85;100.00;70650.75;5037039;28;20025;-88
2022/06/14 08:17:54;;;;;;;1.25;1.20;;;;;;;-143.85;100.00;70650.75;5038797;28;20025;-89
2022/06/14 08:20:24;;;;;;;1.25;1.10;;;;;;;-143.85;100.00;70650.75;5038778;28;20025;-91
2022/06/14 08:22:54;;;;;;;1.42;1.30;;;;;;;-143.85;100.00;70650.75;5038876;28;20029;-94
2022/06/14 08:25:28;;;;;;;1.20;1.10;;;;;;;-143.85;100.00;70650.75;5039263;28;20040;-93
2022/06/14 08:28:11;;;;;;;1.50;1.00;;;;;;;-143.85;100.00;70650.75;5038674;28;20123;-92
2022/06/14 08:30:43;;;;;;;1.40;1.30;;;;;;;-143.85;100.00;70650.75;5038808;28;20032;-91
2022/06/14 08:33:16;;;;;;;1.88;1.35;;;;;;;-143.85;100.00;70650.75;5038942;28;20064;-93
2022/06/14 08:35:50;;;;;;;1.67;1.50;;;;;;;-143.85;100.00;70650.75;5038483;28;20145;-93
2022/06/14 08:38:18;;;;;;;1.50;1.10;;;;;;;-143.85;100.00;70650.75;5056547;28;20072;-92
2022/06/14 08:41:05;;;;;;;2.70;1.40;;;;;;;-143.85;100.00;70650.75;5038879;28;20120;-95
2022/06/14 08:43:42;;;;;;;2.63;1.15;;;;;;;-143.85;100.00;70650.75;5038143;28;20075;-91
2022/06/14 08:46:20;;;;;;;1.60;1.13;;;;;;;-143.85;100.00;70650.75;5038902;28;20029;-93
2022/06/14 08:49:20;;;;;;;4.53;1.52;;;;;;;-143.85;100.00;70650.75;5038939;28;20035;-92
2022/06/14 08:51:57;;;;;;;1.40;1.25;;;;;;;-143.85;100.00;70650.75;5038323;28;20028;-90
2022/06/14 08:54:34;;;;;;;;;;;;;;;-143.85;100.00;70650.75;5056873;28;20033;-91
2022/06/14 08:56:59;;;;;;;1.80;1.55;;;;;;;-143.85;100.00;70650.75;5055918;28;19920;-92
2022/06/14 08:59:57;;;;;;;1.37;1.07;;;;;;;-143.85;100.00;70650.75;5038230;28;20029;-94
2022/06/14 09:02:42;;;;;;;1.13;1.13;;;;;;;-143.85;100.00;70650.75;5038385;28;20259;-87
2022/06/14 09:05:29;;;;;;;3.13;1.30;;;;;;;-143.85;100.00;70650.75;5038657;28;20031;-94
2022/06/14 09:08:39;;;;;;;3.72;1.30;;;;;;;-143.85;100.00;70650.75;5038276;28;20036;-96
2022/06/14 09:11:16;;;;;;;1.48;1.35;;;;;;;-143.85;100.00;70650.75;4958998;28;20125;-96
2022/06/14 09:14:19;;;;;;;3.92;1.35;;;;;;;-143.85;100.00;70650.75;5032532;28;20037;-94
2022/06/14 09:16:52;;;;;;;4.53;1.75;;;;;;;-143.85;100.00;70650.75;5038644;28;20409;-93
2022/06/14 09:19:17;;;;;;;2.00;1.50;;;;;;;-143.85;100.00;70650.75;5038223;28;20421;-95
2022/06/14 09:22:17;;;;;;;1.60;1.50;;;;;;;-143.85;100.00;70650.75;5038425;28;20026;-94
2022/06/14 09:25:00;;;;;;;1.55;1.27;;;;;;;-143.85;100.00;70650.75;5038322;28;20025;-96
2022/06/14 09:27:54;;;;;;;1.20;1.10;;;;;;;-143.85;100.00;70650.75;5054899;28;20029;-92
2022/06/14 09:30:50;;;;;;;4.25;1.30;;;;;;;-143.85;100.00;70650.75;5038524;28;20377;-96
2022/06/14 09:33:43;;;;;;;1.73;1.40;;;;;;;-143.85;100.00;70650.75;5037807;28;20408;-91
2022/06/14 09:36:27;;;;;;;1.25;1.13;;;;;;;-143.85;100.00;70650.75;5055478;28;20108;-92
2022/06/14 09:38:56;;;;;;;1.40;1.27;;;;;;;-143.85;100.00;70650.75;5037833;28;20033;-91
2022/06/14 09:41:43;;;;;;;1.52;1.10;;;;;;;-143.85;100.00;70650.75;5038013;28;20025;-91
2022/06/14 09:44:14;;;;;;;1.83;1.17;;;;;;;-143.85;100.00;70650.75;5037188;28;20040;-92
2022/06/14 09:46:54;;;;;;;1.23;1.13;;;;;;;-143.85;100.00;70650.75;5037296;28;20386;-88
2022/06/14 09:49:44;;;;;;;1.80;1.23;;;;;;;-143.85;100.00;70650.75;5037417;28;20028;-93
2022/06/14 09:52:35;;;;;;;5.75;1.27;;;;;;;-143.85;100.00;70650.75;5037800;28;20115;-91
2022/06/14 09:55:26;;;;;;;2.95;1.27;;;;;;;-143.85;100.00;70650.75;5036816;28;20470;-91
2022/06/14 09:58:16;;;;;;;1.48;1.35;;;;;;;-143.85;100.00;70650.75;5045039;28;20103;-92
2022/06/14 10:00:54;;;;;;;3.75;0.95;;;;;;;-143.85;100.00;70650.75;5037483;28;20080;-93
2022/06/14 10:03:31;;;;;;;1.77;1.17;;;;;;;-143.85;100.00;70650.75;5036860;28;20029;-92
2022/06/14 10:06:11;;;;;;;1.40;1.30;;;;;;;-143.85;100.00;70650.75;5038504;28;20029;-93
2022/06/14 10:09:00;;;;;;;1.35;1.25;;;;;;;-143.85;100.00;70650.75;5037053;28;20025;-91
2022/06/14 10:11:49;;;;;;;7.60;1.63;;;;;;;-143.85;100.00;70650.75;5036991;28;20056;-91
2022/06/14 10:14:21;;;;;;;1.38;1.23;;;;;;;-143.85;100.00;70650.75;5037171;28;20048;-92
2022/06/14 10:17:00;;;;;;;3.30;1.25;;;;;;;-143.85;100.00;70650.75;5036710;28;20021;-93
2022/06/14 10:20:02;;;;;;;2.40;1.73;;;;;;;-143.85;100.00;70650.75;5038825;28;20033;-92
2022/06/14 10:22:46;;;;;;;1.48;1.38;;;;;;;-143.85;100.00;70650.75;5037467;28;20025;-95
2022/06/14 10:25:15;;;;;;;1.10;1.00;;;;;;;-143.85;100.00;70650.75;5037443;28;20028;-93
2022/06/14 10:28:21;;;;;;;1.10;1.00;;;;;;;-143.85;100.00;70650.75;5054658;28;20029;-91
2022/06/14 10:31:09;;;;;;;1.60;1.50;;;;;;;-143.85;100.00;70650.75;5038537;28;20025;-95
2022/06/14 10:34:21;;;;;;;1.88;1.75;;;;;;;-143.85;100.00;70650.75;5036480;28;20123;-92
2022/06/14 10:37:29;;;;;;;3.25;1.63;;;;;;;-143.85;100.00;70650.75;4982978;28;20035;-94
2022/06/14 10:40:27;;;;;;;1.10;1.00;;;;;;;-143.85;100.00;70650.75;5035878;28;20028;-86
2022/06/14 10:43:11;;;;;;;1.05;0.82;;;;;;;-143.85;100.00;70650.75;4957696;28;20047;-84
2022/06/14 10:46:17;;;;;;;1.48;0.95;;;;;;;-143.85;100.00;70650.75;5048393;28;20090;-83
2022/06/14 10:48:51;;;;;;;2.35;1.10;;;;;;;-143.85;100.00;70650.75;5039918;28;20500;-84
2022/06/14 10:51:25;;;;;;;1.27;1.02;;;;;;;-143.85;100.00;70650.75;5043212;28;20031;-85
2022/06/14 10:54:06;;;;;;;2.58;1.15;;;;;;;-143.85;100.00;70650.75;5043511;28;20626;-86
2022/06/14 10:57:08;;;;;;;1.40;1.08;;;;;;;-143.85;100.00;70650.75;5063047;28;20032;-84
2022/06/14 11:00:25;;;;;;;1.15;1.05;;;;;;;-143.85;100.00;70650.75;5038286;28;20043;-83
2022/06/14 11:03:23;;;;;;;1.70;1.10;;;;;;;-143.85;100.00;70650.75;5000916;28;20048;-83
2022/06/14 11:06:23;;;;;;;1.17;0.95;;;;;;;-143.85;100.00;70650.75;5043619;28;20136;-83
2022/06/14 11:09:00;;;;;;;1.00;0.90;;;;;;;-143.85;100.00;70650.75;5041436;28;20086;-85
2022/06/14 11:11:28;;;;;;;;;;;;;;;-143.85;100.00;70650.75;5043510;28;20040;-87
2022/06/14 11:14:13;;;;;;;1.52;1.42;;;;;;;-143.85;100.00;70650.75;5043468;28;19965;-85
2022/06/14 11:17:00;;;;;;;1.05;1.05;;;;;;;-143.85;100.00;70650.75;5055857;28;20107;-86
2022/06/14 11:19:55;;;;;;;4.83;0.80;;;;;;;-143.85;100.00;70650.75;5042002;28;20064;-84
2022/06/14 11:22:22;;;;;;;1.05;0.95;;;;;;;-143.85;100.00;70650.75;5062768;28;20028;-86
2022/06/14 11:25:01;;;;;;;1.08;1.08;;;;;;;-143.85;100.00;70650.75;5031225;28;20029;-84
2022/06/14 11:27:59;;;;;;;0.70;0.70;;;;;;;-143.85;100.00;70650.75;5042545;28;20043;-84
2022/06/14 11:30:30;;;;;;;1.23;0.85;;;;;;;-143.85;100.00;70650.75;5041217;28;20032;-88
2022/06/14 11:33:14;;;;;;;0.88;0.88;;;;;;;-143.85;100.00;70650.75;5047099;28;20037;-87
2022/06/14 11:36:07;;;;;;;0.70;0.70;;;;;;;-143.85;100.00;70650.75;5045577;28;20067;-84
2022/06/14 11:38:51;;;;;;;1.00;1.00;;;;;;;-143.85;100.00;70650.75;5048523;28;20041;-85
2022/06/14 11:41:23;;;;;;;0.82;0.82;;;;;;;-143.85;100.00;70650.75;5059978;28;20058;-82
2022/06/14 11:44:00;;;;;;;0.95;0.88;;;;;;;-143.85;100.00;70650.75;5054489;28;20024;-86
2022/06/14 11:46:49;;;;;;;;;;;;;;;-143.85;100.00;70650.75;5070550;28;20029;-84
2022/06/14 11:50:02;;;;;;;0.98;0.70;;;;;;;-143.85;100.00;70650.75;5046014;28;19912;-84
2022/06/14 11:53:01;;;;;;;1.10;0.80;;;;;;;-143.85;100.00;70650.75;5029848;28;20033;-86
2022/06/14 11:55:43;;;;;;;0.73;0.70;;;;;;;-143.85;100.00;70650.75;5039148;28;20025;-85
2022/06/14 11:58:41;;;;;;;1.38;1.13;;;;;;;-143.85;100.00;70650.75;5056610;28;20033;-83
2022/06/14 12:01:12;;;;;;;0.60;0.55;;;;;;;-143.85;100.00;70650.75;5038235;28;20017;-84
2022/06/14 12:03:59;;;;;;;1.30;1.00;;;;;;;-143.85;100.00;70650.75;5038296;28;20091;-83
2022/06/14 12:06:24;;;;;;;2.40;0.82;;;;;;;-143.85;100.00;70650.75;5038220;28;20060;-84
2022/06/14 12:09:32;;;;;;;0.90;0.90;;;;;;;-143.85;100.00;70650.75;5038646;28;20496;-83
2022/06/14 12:12:51;;;;;;;1.20;0.77;;;;;;;-143.85;100.00;70650.75;5035388;28;20033;-84
2022/06/14 12:15:27;;;;;;;1.00;0.77;;;;;;;-143.85;100.00;70650.75;4975537;28;20066;-83